WetterOnline ( https://www.wetteronline.de )

Wetter aktuell Ludwigsburg

Aktuelles Wetter: Schnarrenberg/Stuttgart (315m)

6-stündlich | Neueste Meldungen
Ortszeit Temperatur Wetter
Sa, 08.05. 20:00 18.7° C leicht bewölkt
Sa, 08.05. 14:00 17.2° C bedeckt
Sa, 08.05. 8:00 5.1° C fast wolkenlos
Sa, 08.05. 2:00 3.4° C wolkenlos
Fr, 07.05. 20:00 10.4° C wolkenlos
Fr, 07.05. 14:00 10.6° C wolkig
Fr, 07.05. 8:00 5.7° C Sprühregen
Fr, 07.05. 2:00 8.1° C bewölkt
Ortszeit Temperatur Wetter
So, 09.05. 1:00 12.3° C wolkig
So, 09.05. 0:50 12.3° C wolkig
So, 09.05. 0:40 12.2° C wolkig
So, 09.05. 0:30 12.5° C wolkig
So, 09.05. 0:20 12.5° C wolkig
So, 09.05. 0:10 12.7° C wolkig
So, 09.05. 0:00 12.2° C leicht bewölkt
Sa, 08.05. 23:30 12.0° C wolkenlos
Sa, 08.05. 23:00 14.6° C wolkenlos
Sa, 08.05. 22:30 14.7° C wolkenlos
Sa, 08.05. 22:00 15.4° C wolkenlos
Ortszeit Relative Feuchte Sichtweite
Sa, 08.05. 20:00 40% >70 km
Sa, 08.05. 14:00 35% 65 km
Sa, 08.05. 8:00 73% 50 km
Sa, 08.05. 2:00 82% 35 km
Fr, 07.05. 20:00 48% >70 km
Fr, 07.05. 14:00 43% 50 km
Fr, 07.05. 8:00 85% 50 km
Fr, 07.05. 2:00 76% >70 km
Ortszeit Relative Feuchte Sichtweite
So, 09.05. 1:00 66% 60 km
So, 09.05. 0:50 66% -
So, 09.05. 0:40 66% -
So, 09.05. 0:30 65% 55 km
So, 09.05. 0:20 65% -
So, 09.05. 0:10 64% -
So, 09.05. 0:00 67% 55 km
Sa, 08.05. 23:30 67% 55 km
Sa, 08.05. 23:00 55% 55 km
Sa, 08.05. 22:30 54% 60 km
Sa, 08.05. 22:00 52% 60 km
Ortszeit Niederschlagsmenge Niederschlagsart
Sa, 08.05. 20:00 0.0 l/m2 in 12 Std. -
Sa, 08.05. 14:00 0.0 l/m2 in 6 Std. -
Sa, 08.05. 8:00 0.0 l/m2 in 12 Std. -
Sa, 08.05. 2:00 0.0 l/m2 in 6 Std. -
Fr, 07.05. 20:00 0.1 l/m2 in 12 Std. Regen
Fr, 07.05. 14:00 0.1 l/m2 in 6 Std. Regen
Fr, 07.05. 8:00 2 l/m2 in 12 Std. Regen
Fr, 07.05. 2:00 0.1 l/m2 in 6 Std. Regen
Ortszeit Niederschlagsmenge Niederschlagsart
So, 09.05. 1:00 0.0 l/m2 in 1 Std. -
So, 09.05. 0:50 keine Meldung -
So, 09.05. 0:40 keine Meldung -
So, 09.05. 0:30 0.0 l/m2 in 1 Std. -
So, 09.05. 0:20 keine Meldung -
So, 09.05. 0:10 keine Meldung -
So, 09.05. 0:00 0.0 l/m2 in 1 Std. -
Sa, 08.05. 23:30 0.0 l/m2 in 1 Std. -
Sa, 08.05. 23:00 0.0 l/m2 in 1 Std. -
Sa, 08.05. 22:30 0.0 l/m2 in 1 Std. -
Sa, 08.05. 22:00 0.0 l/m2 in 1 Std. -
Ortszeit Stärke Spitze Richtung
km/h Bft. km/h Grad Sektor
Sa, 08.05. 20:00 7 2 25 250° W
Sa, 08.05. 14:00 14 3 32 130° SO
Sa, 08.05. 8:00 14 3 22 140° SO
Sa, 08.05. 2:00 7 2 22 140° SO
Fr, 07.05. 20:00 13 3 50 350° N
Fr, 07.05. 14:00 25 4 47 270° W
Fr, 07.05. 8:00 14 3 36 290° W
Fr, 07.05. 2:00 14 3 54 290° W
Ortszeit Stärke Spitze Richtung
km/h Bft. km/h Grad Sektor
So, 09.05. 1:00 4 1 11 180° S
So, 09.05. 0:50 4 1 - 180° S
So, 09.05. 0:40 6 1 - 170° S
So, 09.05. 0:30 7 2 11 180° S
So, 09.05. 0:20 7 2 - 180° S
So, 09.05. 0:10 9 2 - 170° S
So, 09.05. 0:00 9 2 11 150° SO
Sa, 08.05. 23:30 4 1 11 130° SO
Sa, 08.05. 23:00 11 2 14 160° S
Sa, 08.05. 22:30 9 2 15 160° S
Sa, 08.05. 22:00 9 2 15 160° S
Ortszeit Untergrenze Bedeckung Gattung
total tief tief mittel hoch
Sa, 08.05. 20:00 5400 m 5/8 1/8 - - -
Sa, 08.05. 14:00 3600 m 8/8 8/8 - - -
Sa, 08.05. 8:00 10500 m 1/8 0/8 - - -
Sa, 08.05. 2:00 - 0/8 0/8 - - -
Fr, 07.05. 20:00 - 0/8 0/8 - - -
Fr, 07.05. 14:00 1500 m 6/8 7/8 - - -
Fr, 07.05. 8:00 660 m 8/8 8/8 - - -
Fr, 07.05. 2:00 720 m 8/8 4/8 - - -
Ortszeit Bedeckungsgrad in Achtel und Wolkenuntergrenze
So, 09.05. 1:00 8(10500m)
So, 09.05. 0:50 8(10500m)
So, 09.05. 0:40 8(10500m)
So, 09.05. 0:30 8(10500m)
So, 09.05. 0:20 8(10500m)
So, 09.05. 0:10 8(10500m) 8(10500m)
So, 09.05. 0:00 6(10500m)
Sa, 08.05. 23:30 2(10500m)
Sa, 08.05. 23:00 keine Wolken
Sa, 08.05. 22:30 keine Wolken
Sa, 08.05. 22:00 keine Wolken
Ortszeit Luftdruck NN (hPa) Tendenz (hPa in 3 Std.)
Sa, 08.05. 20:00 1013 - 1,2
Sa, 08.05. 14:00 1017 - 2,0
Sa, 08.05. 8:00 1021 - 0,1
Sa, 08.05. 2:00 1022 + 0,2
Fr, 07.05. 20:00 1019 + 1,2
Fr, 07.05. 14:00 1016 + 1,9
Fr, 07.05. 8:00 1012 + 2,2
Fr, 07.05. 2:00 1008 + 2,4
Ortszeit Luftdruck NN (hPa) Tendenz (hPa in 3 Std.)
So, 09.05. 1:00 1013 - 0,1
So, 09.05. 0:50 1013 keine Meldung
So, 09.05. 0:40 1013 keine Meldung
So, 09.05. 0:30 1013 - 0,3
So, 09.05. 0:20 1013 keine Meldung
So, 09.05. 0:10 1013 keine Meldung
So, 09.05. 0:00 1013 - 0,3
Sa, 08.05. 23:30 1013 - 0,1
Sa, 08.05. 23:00 1013 - 0,1
Sa, 08.05. 22:30 1013 - 0,2
Sa, 08.05. 22:00 1013 - 0,1
Ortszeit Schneehöhe (cm)
Sa, 08.05. 20:00 0
Sa, 08.05. 14:00 0
Sa, 08.05. 8:00 0
Sa, 08.05. 2:00 0
Fr, 07.05. 20:00 0
Fr, 07.05. 14:00 0
Fr, 07.05. 8:00 0
Fr, 07.05. 2:00 0
Ortszeit Schneehöhe (cm)
So, 09.05. 1:00 0
So, 09.05. 0:50 0
So, 09.05. 0:40 0
So, 09.05. 0:30 0
So, 09.05. 0:20 0
So, 09.05. 0:10 0
So, 09.05. 0:00 0
Sa, 08.05. 23:30 0
Sa, 08.05. 23:00 0
Sa, 08.05. 22:30 0
Sa, 08.05. 22:00 0
Link zu dieser Seite / Seite empfehlen

Das Wetter in ...